createdAt,value
2023-05-18T00:00:19.520Z,65.15
2023-05-18T00:02:48.478Z,64.66
2023-05-18T00:05:18.167Z,62.77
2023-05-18T00:07:46.395Z,62.77
2023-05-18T00:10:15.685Z,62.89
2023-05-18T00:12:43.489Z,62.23
2023-05-18T00:15:11.640Z,63.23
2023-05-18T00:17:39.448Z,63.97
2023-05-18T00:20:13.354Z,64.48
2023-05-18T00:22:42.850Z,64.91
2023-05-18T00:25:11.004Z,65.30
2023-05-18T00:27:40.173Z,65.94
2023-05-18T00:30:09.090Z,66.03
2023-05-18T00:32:37.140Z,65.80
2023-05-18T00:35:05.708Z,67.11
2023-05-18T00:37:33.489Z,64.87
2023-05-18T00:40:01.296Z,66.88
2023-05-18T00:42:29.400Z,67.25
2023-05-18T00:44:58.603Z,68.52
2023-05-18T00:47:27.609Z,68.17
2023-05-18T00:49:55.760Z,67.05
2023-05-18T00:52:24.676Z,68.39
2023-05-18T00:54:53.773Z,68.38
2023-05-18T00:57:21.581Z,68.10
2023-05-18T00:59:51.189Z,68.46
2023-05-18T01:02:20.453Z,68.87
2023-05-18T01:04:48.557Z,68.23
2023-05-18T01:07:16.568Z,69.26
2023-05-18T01:09:44.439Z,69.22
2023-05-18T01:12:22.037Z,69.58
2023-05-18T01:14:57.156Z,69.36
2023-05-18T01:17:35.103Z,69.32
2023-05-18T01:20:30.133Z,69.36
2023-05-18T01:23:10.168Z,69.96
2023-05-18T01:25:48.554Z,69.39
2023-05-18T01:28:21.437Z,70.37
2023-05-18T01:30:49.635Z,70.51
2023-05-18T01:33:17.457Z,70.52
2023-05-18T01:35:48.425Z,70.93
2023-05-18T01:38:18.776Z,71.01
2023-05-18T01:40:55.907Z,71.85
2023-05-18T01:43:31.766Z,71.56
2023-05-18T01:46:05.307Z,71.92
2023-05-18T01:48:38.063Z,72.12
2023-05-18T01:51:07.425Z,72.56
2023-05-18T01:53:42.238Z,73.16
2023-05-18T01:56:13.892Z,72.07
2023-05-18T01:58:44.477Z,72.72
2023-05-18T02:01:12.631Z,72.99
2023-05-18T02:03:40.586Z,73.13
2023-05-18T02:06:08.713Z,73.38
2023-05-18T02:08:37.741Z,74.00
2023-05-18T02:11:05.886Z,74.49
2023-05-18T02:13:34.386Z,74.15
2023-05-18T02:16:04.409Z,74.10
2023-05-18T02:18:34.129Z,74.57
2023-05-18T02:21:02.748Z,75.59
2023-05-18T02:23:33.902Z,75.38
2023-05-18T02:26:02.188Z,75.02
2023-05-18T02:28:30.674Z,74.34
2023-05-18T02:31:07.924Z,74.17
2023-05-18T02:33:39.831Z,74.50
2023-05-18T02:36:09.835Z,75.56
2023-05-18T02:38:38.914Z,75.33
2023-05-18T02:41:08.121Z,75.26
2023-05-18T02:43:36.386Z,73.64
2023-05-18T02:46:04.705Z,73.08
2023-05-18T02:48:35.129Z,74.33
2023-05-18T02:51:02.986Z,75.59
2023-05-18T02:53:31.122Z,75.38
2023-05-18T02:56:04.906Z,75.17
2023-05-18T02:58:43.692Z,74.43
2023-05-18T03:01:18.805Z,75.22
2023-05-18T03:03:53.075Z,74.93
2023-05-18T03:06:23.374Z,75.98
2023-05-18T03:08:54.248Z,75.93
2023-05-18T03:11:26.204Z,75.71
2023-05-18T03:13:54.775Z,75.68
2023-05-18T03:16:28.020Z,77.68
2023-05-18T03:18:59.123Z,77.88
2023-05-18T03:21:33.813Z,77.46
2023-05-18T03:24:03.250Z,76.84
2023-05-18T03:26:32.842Z,77.01
2023-05-18T03:29:01.201Z,78.18
2023-05-18T03:31:29.110Z,78.47
2023-05-18T03:34:00.281Z,77.77
2023-05-18T03:36:28.908Z,76.05
2023-05-18T03:38:56.702Z,77.01
2023-05-18T03:41:25.029Z,78.70
2023-05-18T03:43:54.990Z,77.70
2023-05-18T03:46:23.805Z,77.83
2023-05-18T03:48:53.864Z,77.26
2023-05-18T03:51:29.174Z,77.77
2023-05-18T03:53:57.079Z,78.22
2023-05-18T03:56:24.898Z,79.33
2023-05-18T03:58:52.929Z,79.73
2023-05-18T04:01:23.755Z,79.28
2023-05-18T04:03:56.445Z,78.61
2023-05-18T04:06:27.624Z,78.74
2023-05-18T04:08:55.864Z,79.62
2023-05-18T04:11:24.418Z,79.03
2023-05-18T04:13:52.176Z,79.54
2023-05-18T04:16:21.995Z,79.29
2023-05-18T04:18:49.941Z,79.19
2023-05-18T04:21:19.427Z,79.79
2023-05-18T04:23:49.012Z,80.54
2023-05-18T04:26:20.256Z,80.41
2023-05-18T04:28:48.345Z,80.41
2023-05-18T04:31:17.868Z,81.51
2023-05-18T04:33:46.661Z,82.31
2023-05-18T04:36:15.149Z,81.95
2023-05-18T04:38:43.171Z,82.46
2023-05-18T04:41:12.594Z,80.77
2023-05-18T04:43:41.665Z,80.10
2023-05-18T04:46:10.239Z,79.19
2023-05-18T04:48:38.940Z,79.61
2023-05-18T04:51:07.187Z,80.16
2023-05-18T04:53:35.682Z,79.95
2023-05-18T04:56:03.515Z,80.05
2023-05-18T04:58:35.603Z,79.96
2023-05-18T05:01:03.468Z,81.48
2023-05-18T05:03:31.461Z,82.15
2023-05-18T05:05:59.460Z,82.58
2023-05-18T05:08:27.265Z,81.63
2023-05-18T05:10:55.098Z,81.87
2023-05-18T05:13:22.992Z,81.35
2023-05-18T05:15:52.355Z,81.91
2023-05-18T05:18:20.427Z,82.71
2023-05-18T05:20:49.151Z,82.99
2023-05-18T05:23:17.720Z,79.56
2023-05-18T05:25:46.852Z,81.18
2023-05-18T05:28:14.709Z,82.17
2023-05-18T05:30:43.345Z,83.69
2023-05-18T05:33:12.577Z,82.47
2023-05-18T05:35:40.624Z,83.19
2023-05-18T05:38:08.484Z,83.82
2023-05-18T05:40:36.522Z,81.64
2023-05-18T05:43:06.091Z,80.04
2023-05-18T05:45:34.443Z,79.25
2023-05-18T05:48:06.156Z,80.55
2023-05-18T05:50:37.015Z,82.72
2023-05-18T05:53:06.245Z,82.37
2023-05-18T05:55:41.220Z,79.56
2023-05-18T05:58:13.002Z,82.36
2023-05-18T06:00:43.240Z,83.60
2023-05-18T06:03:11.177Z,81.66
2023-05-18T06:05:44.303Z,82.41
2023-05-18T06:08:14.169Z,80.54
2023-05-18T06:10:42.600Z,81.13
2023-05-18T06:13:12.651Z,79.35
2023-05-18T06:15:48.993Z,80.15
2023-05-18T06:18:16.879Z,77.91
2023-05-18T06:20:47.393Z,80.53
2023-05-18T06:23:22.402Z,81.76
2023-05-18T06:26:07.046Z,80.88
2023-05-18T06:28:53.013Z,79.38
2023-05-18T06:31:41.478Z,77.80
2023-05-18T06:34:12.070Z,77.98
2023-05-18T06:36:41.660Z,76.11
2023-05-18T06:39:09.770Z,74.74
2023-05-18T06:41:37.601Z,75.87
2023-05-18T06:44:06.612Z,75.69
2023-05-18T06:46:37.914Z,75.97
2023-05-18T06:49:14.835Z,76.51
2023-05-18T06:51:44.125Z,75.85
2023-05-18T06:54:12.560Z,75.08
2023-05-18T06:56:40.442Z,73.91
2023-05-18T06:59:08.398Z,76.02
2023-05-18T07:01:36.785Z,74.49
2023-05-18T07:04:05.771Z,77.42
2023-05-18T07:06:33.725Z,74.94
2023-05-18T07:09:03.587Z,75.76
2023-05-18T07:11:31.394Z,72.62
2023-05-18T07:13:59.165Z,75.12
2023-05-18T07:16:28.330Z,71.97
2023-05-18T07:18:57.568Z,71.98
2023-05-18T07:21:26.222Z,69.39
2023-05-18T07:23:54.101Z,70.47
2023-05-18T07:26:23.472Z,70.46
2023-05-18T07:28:51.951Z,69.54
2023-05-18T07:31:21.684Z,69.28
2023-05-18T07:33:49.821Z,73.93
2023-05-18T07:36:17.691Z,69.07
2023-05-18T07:38:45.457Z,66.73
2023-05-18T07:41:13.414Z,65.92
2023-05-18T07:43:42.552Z,69.26
2023-05-18T07:46:10.348Z,71.83
2023-05-18T07:48:40.546Z,67.09
2023-05-18T07:51:09.169Z,68.32
2023-05-18T07:53:37.930Z,65.65
2023-05-18T07:56:07.035Z,63.95
2023-05-18T07:58:35.038Z,63.57
2023-05-18T08:01:04.541Z,63.93
2023-05-18T08:03:32.929Z,66.24
2023-05-18T08:06:01.196Z,66.46
2023-05-18T08:08:29.017Z,64.82
2023-05-18T08:10:56.804Z,63.07
2023-05-18T08:13:24.660Z,62.35
2023-05-18T08:16:02.980Z,63.19
2023-05-18T08:18:39.364Z,61.20
2023-05-18T08:21:09.912Z,61.18
2023-05-18T08:23:38.633Z,62.00
2023-05-18T08:26:08.236Z,67.04
2023-05-18T08:28:36.274Z,62.45
2023-05-18T08:31:04.073Z,62.85
2023-05-18T08:33:32.533Z,62.74
2023-05-18T08:36:01.848Z,63.26
2023-05-18T08:38:29.785Z,59.93
2023-05-18T08:41:09.432Z,59.97
2023-05-18T08:43:42.899Z,62.08
2023-05-18T08:46:18.343Z,59.50
2023-05-18T08:48:46.927Z,59.02
2023-05-18T08:51:20.608Z,59.63
2023-05-18T08:53:53.967Z,58.03
2023-05-18T08:56:24.370Z,59.22
2023-05-18T08:58:56.052Z,59.37
2023-05-18T09:01:28.838Z,58.93
2023-05-18T09:03:58.103Z,60.06
2023-05-18T09:06:28.385Z,60.92
2023-05-18T09:08:58.425Z,60.82
2023-05-18T09:11:28.208Z,58.85
2023-05-18T09:13:56.053Z,60.10
2023-05-18T09:16:24.603Z,59.32
2023-05-18T09:18:52.876Z,56.06
2023-05-18T09:21:20.754Z,55.21
2023-05-18T09:23:52.438Z,54.60
2023-05-18T09:26:21.725Z,54.23
2023-05-18T09:28:54.138Z,54.82
2023-05-18T09:31:24.607Z,55.29
2023-05-18T09:33:53.777Z,54.54
2023-05-18T09:36:26.142Z,51.41
2023-05-18T09:38:55.465Z,53.35
2023-05-18T09:41:27.572Z,54.36
2023-05-18T09:43:55.772Z,53.89
2023-05-18T09:46:23.579Z,53.65
2023-05-18T09:48:54.025Z,57.03
2023-05-18T09:51:25.242Z,55.54
2023-05-18T09:53:57.017Z,53.27
2023-05-18T09:56:26.933Z,52.94
2023-05-18T09:58:55.458Z,53.74
2023-05-18T10:01:23.315Z,56.24
2023-05-18T10:03:51.246Z,56.02
2023-05-18T10:06:21.394Z,54.39
2023-05-18T10:08:49.583Z,55.06
2023-05-18T10:11:21.966Z,52.71
2023-05-18T10:13:55.327Z,52.06
2023-05-18T10:16:25.137Z,51.36
2023-05-18T10:18:55.765Z,50.09
2023-05-18T10:21:32.206Z,52.34
2023-05-18T10:24:02.862Z,53.49
2023-05-18T10:26:41.955Z,52.27
2023-05-18T10:29:11.372Z,52.47
2023-05-18T10:31:40.188Z,50.99
2023-05-18T10:34:10.447Z,51.81
2023-05-18T10:36:39.325Z,52.64
2023-05-18T10:39:08.922Z,53.50
2023-05-18T10:41:40.289Z,53.10
2023-05-18T10:44:08.811Z,51.68
2023-05-18T10:46:37.069Z,51.84
2023-05-18T10:49:12.940Z,51.07
2023-05-18T10:51:43.634Z,50.97
2023-05-18T10:54:14.049Z,46.56
2023-05-18T10:56:47.745Z,45.69
2023-05-18T10:59:18.382Z,46.98
2023-05-18T11:01:48.089Z,45.42
2023-05-18T11:04:16.058Z,45.04
2023-05-18T11:06:43.848Z,44.37
2023-05-18T11:09:24.860Z,42.86
2023-05-18T11:11:56.017Z,44.17
2023-05-18T11:14:28.224Z,42.71
2023-05-18T11:17:16.392Z,43.07
2023-05-18T11:20:12.991Z,44.00
2023-05-18T11:23:03.656Z,43.25
2023-05-18T11:25:38.945Z,42.18
2023-05-18T11:28:20.905Z,41.49
2023-05-18T11:30:53.373Z,41.70
2023-05-18T11:33:29.930Z,44.12
2023-05-18T11:36:08.116Z,41.65
2023-05-18T11:38:56.839Z,41.79
2023-05-18T11:41:39.278Z,41.98
2023-05-18T11:44:17.304Z,40.45
2023-05-18T11:46:58.445Z,43.24
2023-05-18T11:49:27.923Z,40.26
2023-05-18T11:51:58.985Z,40.65
2023-05-18T11:54:29.115Z,39.83
2023-05-18T11:56:57.262Z,38.43
2023-05-18T11:59:34.348Z,39.40
2023-05-18T12:02:04.278Z,39.30
2023-05-18T12:04:33.608Z,40.02
2023-05-18T12:07:06.675Z,40.66
2023-05-18T12:09:35.226Z,39.91
2023-05-18T12:12:03.243Z,37.75
2023-05-18T12:14:36.034Z,38.71
2023-05-18T12:17:04.110Z,37.59
2023-05-18T12:19:38.293Z,37.30
2023-05-18T12:22:06.434Z,37.97
2023-05-18T12:24:34.244Z,38.38
2023-05-18T12:27:06.816Z,39.90
2023-05-18T12:29:39.187Z,40.33
2023-05-18T12:32:09.668Z,40.20
2023-05-18T12:34:38.366Z,40.22
2023-05-18T12:37:07.416Z,39.12
2023-05-18T12:39:35.319Z,38.63
2023-05-18T12:42:11.414Z,36.62
2023-05-18T12:44:40.757Z,36.45
2023-05-18T12:47:08.773Z,37.10
2023-05-18T12:49:38.204Z,37.74
2023-05-18T12:52:14.068Z,37.54
2023-05-18T12:54:55.630Z,37.63
2023-05-18T12:57:26.972Z,36.98
2023-05-18T12:59:56.403Z,37.56
2023-05-18T13:02:32.752Z,37.59
2023-05-18T13:05:05.632Z,36.54
2023-05-18T13:07:34.399Z,35.86
2023-05-18T13:10:02.900Z,36.81
2023-05-18T13:12:41.172Z,37.32
2023-05-18T13:15:15.627Z,37.44
2023-05-18T13:17:50.738Z,39.11
2023-05-18T13:20:18.705Z,37.79
2023-05-18T13:22:46.516Z,36.23
2023-05-18T13:25:14.344Z,37.78
2023-05-18T13:27:42.178Z,37.48
2023-05-18T13:30:11.069Z,37.83
2023-05-18T13:32:40.285Z,38.09
2023-05-18T13:35:08.530Z,37.23
2023-05-18T13:37:36.561Z,37.42
2023-05-18T13:40:04.955Z,38.32
2023-05-18T13:42:33.113Z,37.84
2023-05-18T13:45:00.981Z,38.44
2023-05-18T13:47:28.793Z,37.79
2023-05-18T13:49:57.949Z,38.10
2023-05-18T13:52:26.029Z,39.42
2023-05-18T13:54:53.841Z,39.48
2023-05-18T13:57:23.225Z,37.75
2023-05-18T13:59:51.109Z,38.14
2023-05-18T14:02:18.985Z,38.38
2023-05-18T14:04:46.944Z,39.52
2023-05-18T14:07:16.077Z,38.15
2023-05-18T14:09:43.876Z,38.69
2023-05-18T14:12:12.970Z,38.78
2023-05-18T14:14:43.130Z,38.20
2023-05-18T14:17:11.668Z,37.94
2023-05-18T14:19:39.621Z,38.44
2023-05-18T14:22:07.553Z,36.83
2023-05-18T14:24:36.803Z,37.51
2023-05-18T14:27:04.933Z,39.02
2023-05-18T14:29:35.911Z,38.41
2023-05-18T14:32:04.088Z,39.37
2023-05-18T14:34:31.914Z,39.32
2023-05-18T14:36:59.775Z,39.00
2023-05-18T14:39:27.561Z,39.45
2023-05-18T14:41:56.621Z,39.79
2023-05-18T14:44:24.385Z,39.38
2023-05-18T14:46:53.383Z,39.16
2023-05-18T14:49:21.225Z,39.99
2023-05-18T14:51:49.116Z,39.57
2023-05-18T14:54:18.176Z,39.85
2023-05-18T14:56:46.355Z,39.90
2023-05-18T14:59:15.678Z,40.76
2023-05-18T15:01:43.473Z,40.60
2023-05-18T15:04:11.395Z,41.46
2023-05-18T15:06:39.322Z,40.68
2023-05-18T15:09:08.335Z,40.87
2023-05-18T15:11:36.205Z,41.53
2023-05-18T15:14:04.039Z,41.91
2023-05-18T15:16:33.265Z,42.43
2023-05-18T15:19:01.156Z,41.55
2023-05-18T15:21:28.990Z,41.93
2023-05-18T15:23:56.766Z,41.48
2023-05-18T15:26:24.638Z,41.43
2023-05-18T15:28:52.374Z,41.80
2023-05-18T15:31:20.222Z,43.18
2023-05-18T15:33:51.246Z,42.88
2023-05-18T15:36:19.215Z,41.26
2023-05-18T15:38:47.044Z,42.86
2023-05-18T15:41:16.412Z,43.20
2023-05-18T15:43:45.037Z,42.24
2023-05-18T15:46:12.902Z,42.59
2023-05-18T15:48:40.835Z,42.27
2023-05-18T15:51:10.102Z,42.17
2023-05-18T15:53:40.520Z,44.39
2023-05-18T15:56:10.964Z,43.03
2023-05-18T15:58:41.056Z,42.48
2023-05-18T16:01:08.940Z,43.17
2023-05-18T16:03:37.089Z,43.69
2023-05-18T16:06:08.277Z,44.22
2023-05-18T16:08:40.550Z,43.53
2023-05-18T16:11:08.347Z,44.44
2023-05-18T16:13:37.861Z,44.21
2023-05-18T16:16:06.944Z,44.30
2023-05-18T16:18:40.931Z,44.19
2023-05-18T16:21:09.288Z,43.22
2023-05-18T16:23:41.220Z,44.01
2023-05-18T16:26:09.066Z,43.70
2023-05-18T16:28:42.783Z,43.58
2023-05-18T16:31:12.190Z,42.01
2023-05-18T16:33:41.070Z,42.38
2023-05-18T16:36:14.634Z,41.89
2023-05-18T16:38:43.895Z,41.89
2023-05-18T16:41:12.481Z,41.74
2023-05-18T16:43:40.242Z,41.34
2023-05-18T16:46:11.368Z,41.14
2023-05-18T16:48:42.295Z,40.77
2023-05-18T16:51:10.126Z,41.46
2023-05-18T16:53:38.081Z,40.91
2023-05-18T16:56:07.701Z,41.91
2023-05-18T16:58:35.692Z,41.20
2023-05-18T17:01:09.851Z,41.01
2023-05-18T17:03:44.069Z,40.79
2023-05-18T17:06:12.120Z,42.18
2023-05-18T17:08:40.045Z,42.71
2023-05-18T17:11:09.219Z,41.53
2023-05-18T17:13:37.115Z,41.81
2023-05-18T17:16:06.579Z,41.81
2023-05-18T17:18:34.488Z,42.34
2023-05-18T17:21:02.288Z,42.10
2023-05-18T17:23:30.141Z,41.75
2023-05-18T17:26:06.098Z,43.34
2023-05-18T17:28:35.863Z,43.05
2023-05-18T17:31:04.143Z,42.59
2023-05-18T17:33:32.080Z,42.06
2023-05-18T17:36:00.036Z,42.79
2023-05-18T17:38:27.912Z,43.08
2023-05-18T17:40:56.620Z,42.20
2023-05-18T17:43:24.547Z,43.13
2023-05-18T17:45:53.712Z,43.61
2023-05-18T17:48:21.591Z,43.85
2023-05-18T17:50:49.596Z,43.71
2023-05-18T17:53:17.745Z,44.20
2023-05-18T17:55:45.523Z,44.81
2023-05-18T17:58:13.273Z,45.77
2023-05-18T18:00:41.107Z,44.36
2023-05-18T18:03:10.532Z,45.20
2023-05-18T18:05:38.449Z,45.50
2023-05-18T18:08:06.430Z,46.03
2023-05-18T18:10:34.802Z,45.95
2023-05-18T18:13:02.716Z,45.36
2023-05-18T18:15:30.615Z,44.89
2023-05-18T18:17:58.540Z,45.68
2023-05-18T18:20:27.848Z,45.85
2023-05-18T18:22:55.645Z,47.31
2023-05-18T18:25:23.538Z,46.25
2023-05-18T18:27:51.319Z,46.46
2023-05-18T18:30:19.118Z,46.26
2023-05-18T18:32:46.887Z,46.13
2023-05-18T18:35:14.806Z,45.88
2023-05-18T18:37:45.700Z,46.46
2023-05-18T18:40:14.456Z,46.00
2023-05-18T18:42:42.565Z,47.25
2023-05-18T18:45:11.035Z,48.02
2023-05-18T18:47:39.916Z,48.02
2023-05-18T18:50:08.736Z,46.79
2023-05-18T18:52:36.884Z,46.98
2023-05-18T18:55:07.027Z,47.49
2023-05-18T18:57:34.932Z,48.30
2023-05-18T19:00:04.873Z,47.85
2023-05-18T19:02:32.652Z,47.26
2023-05-18T19:05:00.651Z,48.05
2023-05-18T19:07:28.556Z,49.47
2023-05-18T19:09:56.384Z,48.34
2023-05-18T19:12:25.896Z,48.06
2023-05-18T19:14:53.749Z,48.43
2023-05-18T19:17:21.849Z,48.60
2023-05-18T19:19:49.795Z,48.98
2023-05-18T19:22:17.703Z,48.92
2023-05-18T19:24:46.061Z,49.36
2023-05-18T19:27:14.125Z,50.18
2023-05-18T19:29:43.364Z,50.17
2023-05-18T19:32:11.916Z,50.34
2023-05-18T19:34:39.811Z,50.46
2023-05-18T19:37:10.256Z,51.67
2023-05-18T19:39:38.067Z,51.78
2023-05-18T19:42:06.918Z,52.72
2023-05-18T19:44:34.774Z,51.57
2023-05-18T19:47:04.392Z,53.32
2023-05-18T19:49:34.320Z,51.97
2023-05-18T19:52:07.860Z,51.04
2023-05-18T19:54:36.149Z,51.51
2023-05-18T19:57:06.670Z,51.37
2023-05-18T19:59:34.586Z,51.37
2023-05-18T20:02:05.115Z,51.80
2023-05-18T20:07:01.934Z,52.74
2023-05-18T20:09:30.911Z,52.71
2023-05-18T20:11:58.679Z,51.46
2023-05-18T20:14:26.977Z,51.63
2023-05-18T20:16:56.210Z,51.27
2023-05-18T20:19:27.577Z,52.02
2023-05-18T20:21:55.860Z,52.41
2023-05-18T20:24:25.017Z,52.38
2023-05-18T20:26:52.900Z,52.98
2023-05-18T20:29:20.747Z,52.29
2023-05-18T20:31:48.814Z,53.19
2023-05-18T20:34:16.663Z,53.21
2023-05-18T20:36:45.855Z,53.50
2023-05-18T20:39:14.463Z,53.33
2023-05-18T20:41:42.288Z,54.17
2023-05-18T20:44:11.294Z,53.66
2023-05-18T20:46:42.430Z,54.11
2023-05-18T20:49:13.667Z,54.22
2023-05-18T20:51:41.538Z,54.38
2023-05-18T20:54:10.798Z,54.70
2023-05-18T20:56:38.868Z,55.20
2023-05-18T20:59:06.728Z,55.25
2023-05-18T21:01:39.095Z,55.08
2023-05-18T21:04:08.675Z,55.50
2023-05-18T21:06:40.407Z,56.03
2023-05-18T21:09:08.357Z,55.17
2023-05-18T21:11:37.563Z,55.86
2023-05-18T21:14:05.415Z,56.36
2023-05-18T21:16:33.397Z,56.07
2023-05-18T21:19:01.493Z,56.52
2023-05-18T21:21:29.330Z,56.35
2023-05-18T21:23:57.199Z,57.18
2023-05-18T21:26:25.088Z,58.02
2023-05-18T21:28:55.091Z,57.41
2023-05-18T21:31:23.073Z,58.66
2023-05-18T21:33:54.578Z,57.61
2023-05-18T21:36:33.602Z,58.94
2023-05-18T21:39:01.755Z,59.79
2023-05-18T21:41:29.572Z,58.57
2023-05-18T21:44:02.362Z,59.50
2023-05-18T21:46:30.357Z,59.11
2023-05-18T21:49:01.177Z,59.50
2023-05-18T21:51:31.144Z,59.14
2023-05-18T21:53:58.965Z,59.15
2023-05-18T21:56:27.692Z,59.54
2023-05-18T21:58:56.939Z,59.48
2023-05-18T22:01:27.242Z,60.41
2023-05-18T22:03:55.822Z,61.53
2023-05-18T22:06:23.784Z,61.94
2023-05-18T22:08:51.733Z,60.72
2023-05-18T22:11:19.670Z,62.14
2023-05-18T22:13:47.476Z,61.72
2023-05-18T22:16:15.521Z,61.63
2023-05-18T22:18:44.713Z,62.37
2023-05-18T22:21:12.561Z,62.42
2023-05-18T22:23:40.312Z,62.86
2023-05-18T22:26:08.269Z,63.79
2023-05-18T22:28:38.259Z,63.69
2023-05-18T22:31:06.537Z,63.98
2023-05-18T22:33:34.383Z,64.00
2023-05-18T22:36:04.010Z,64.19
2023-05-18T22:38:31.819Z,63.73
2023-05-18T22:40:59.671Z,64.78
2023-05-18T22:43:28.927Z,65.15
2023-05-18T22:45:56.819Z,66.04
2023-05-18T22:48:27.582Z,66.87
2023-05-18T22:50:55.605Z,67.53
2023-05-18T22:53:24.890Z,67.05
2023-05-18T22:55:52.703Z,66.36
2023-05-18T22:58:20.544Z,66.51
2023-05-18T23:00:48.344Z,67.64
2023-05-18T23:03:17.445Z,67.89
2023-05-18T23:05:46.145Z,67.64
2023-05-18T23:08:14.220Z,68.54
2023-05-18T23:10:44.363Z,67.69
2023-05-18T23:13:12.295Z,68.43
2023-05-18T23:15:41.470Z,69.27
2023-05-18T23:18:10.313Z,69.58
2023-05-18T23:20:38.706Z,69.92
2023-05-18T23:23:06.895Z,69.13
2023-05-18T23:25:34.757Z,70.04
2023-05-18T23:28:03.895Z,71.47
2023-05-18T23:30:32.177Z,71.38
2023-05-18T23:33:00.968Z,71.76
2023-05-18T23:35:29.761Z,71.16
2023-05-18T23:37:58.969Z,72.59
2023-05-18T23:40:27.283Z,72.25
2023-05-18T23:42:55.682Z,73.23
2023-05-18T23:45:25.460Z,73.11
2023-05-18T23:47:56.077Z,73.50
2023-05-18T23:50:24.755Z,74.77
2023-05-18T23:52:54.303Z,74.59
2023-05-18T23:55:24.902Z,74.83
2023-05-18T23:57:53.236Z,75.08
